createdAt,value
2023-02-11T00:01:24.619Z,20.5
2023-02-11T00:03:28.489Z,17.4
2023-02-11T00:05:32.227Z,18.7
2023-02-11T00:07:36.039Z,30.8
2023-02-11T00:09:42.662Z,26
2023-02-11T00:11:46.480Z,24.9
2023-02-11T00:13:50.270Z,29.4
2023-02-11T00:21:05.021Z,20.5
2023-02-11T00:23:11.615Z,15.5
2023-02-11T00:27:19.221Z,29.7
2023-02-11T00:29:23.043Z,13.3
2023-02-11T00:31:26.985Z,22.4
2023-02-11T00:33:30.643Z,22.8
2023-02-11T00:35:34.439Z,17.4
2023-02-11T00:37:41.069Z,37.3
2023-02-11T00:43:52.540Z,18.7
2023-02-11T00:45:56.316Z,19.3
2023-02-11T00:48:00.114Z,24.6
2023-02-11T00:50:03.879Z,14.4
2023-02-11T00:52:11.979Z,20.3
2023-02-11T00:56:19.606Z,26.5
2023-02-11T00:58:23.364Z,9.1
2023-02-11T01:02:30.986Z,24.3
2023-02-11T01:04:34.806Z,16.6
2023-02-11T01:06:41.435Z,17.5
2023-02-11T01:08:45.250Z,13.6
2023-02-11T01:10:49.024Z,27.6
2023-02-11T01:13:18.550Z,14.6
2023-02-11T01:15:22.376Z,18.2
2023-02-11T01:17:26.146Z,16.3
2023-02-11T01:19:32.767Z,23.7
2023-02-11T01:21:36.579Z,16.3
2023-02-11T01:23:40.387Z,24.6
2023-02-11T01:25:44.197Z,29.9
2023-02-11T01:27:47.995Z,25.1
2023-02-11T01:29:51.801Z,16.9
2023-02-11T01:31:55.674Z,24.9
2023-02-11T01:34:02.225Z,12.4
2023-02-11T01:38:09.838Z,9.6
2023-02-11T01:42:17.481Z,20.6
2023-02-11T01:48:31.684Z,18.9
2023-02-11T01:52:39.303Z,13.4
2023-02-11T01:58:50.734Z,14.6
2023-02-11T02:03:01.153Z,36.9
2023-02-11T02:05:04.972Z,15.2
2023-02-11T02:07:08.763Z,32.8
2023-02-11T02:12:19.691Z,27.7
2023-02-11T02:14:23.504Z,21.1
2023-02-11T02:16:30.135Z,18.3
2023-02-11T02:18:33.918Z,25
2023-02-11T02:20:37.735Z,20.9
2023-02-11T02:22:41.545Z,20
2023-02-11T02:24:45.312Z,23.1
2023-02-11T02:26:49.125Z,23.2
2023-02-11T02:28:52.928Z,11.7
2023-02-11T02:30:59.606Z,14
2023-02-11T02:33:16.730Z,23.7
2023-02-11T02:35:07.322Z,29.6
2023-02-11T02:37:10.954Z,33.7
2023-02-11T02:39:14.764Z,20.3
2023-02-11T02:41:18.529Z,31.5
2023-02-11T02:43:22.333Z,31.7
2023-02-11T02:45:28.967Z,24.4
2023-02-11T02:47:32.751Z,18
2023-02-11T02:49:36.538Z,14.4
2023-02-11T02:51:40.339Z,29.4
2023-02-11T02:57:51.733Z,19.8
2023-02-11T03:02:02.148Z,20.6
2023-02-11T03:05:09.239Z,19.4
2023-02-11T03:07:13.051Z,27.4
2023-02-11T03:11:20.650Z,27.2
2023-02-11T03:13:27.251Z,56.2
2023-02-11T03:15:31.073Z,23.6
2023-02-11T03:17:34.858Z,23.1
2023-02-11T03:19:38.686Z,17
2023-02-11T03:23:46.249Z,24.7
2023-02-11T03:25:50.379Z,22.3
2023-02-11T03:27:56.768Z,31.2
2023-02-11T03:30:00.482Z,19.9
2023-02-11T03:34:08.089Z,12.2
2023-02-11T03:40:19.506Z,35.7
2023-02-11T03:44:29.979Z,14.5
2023-02-11T03:50:41.337Z,19.3
2023-02-11T03:52:45.155Z,22.9
2023-02-11T03:54:48.941Z,21.2
2023-02-11T03:56:55.549Z,15.5
2023-02-11T03:58:59.366Z,28.9
2023-02-11T04:02:07.086Z,14.1
2023-02-11T04:04:10.895Z,30.9
2023-02-11T04:06:14.721Z,28.7
2023-02-11T04:08:18.514Z,41.4
2023-02-11T04:10:25.132Z,21.5
2023-02-11T04:12:28.949Z,26
2023-02-11T04:14:32.733Z,24.8
2023-02-11T04:16:36.605Z,21.7
2023-02-11T04:18:40.348Z,27.6
2023-02-11T04:20:44.156Z,27.6
2023-02-11T04:22:47.939Z,22
2023-02-11T04:24:54.597Z,25.2
2023-02-11T04:26:58.361Z,36.2
2023-02-11T04:29:02.212Z,42.7
2023-02-11T04:31:06.031Z,17.8
2023-02-11T04:33:09.763Z,22.4
2023-02-11T04:35:13.579Z,31.9
2023-02-11T04:37:17.506Z,30.2
2023-02-11T04:41:27.795Z,35.9
2023-02-11T04:43:31.608Z,19.9
2023-02-11T04:45:35.414Z,18.9
2023-02-11T04:47:39.203Z,31.7
2023-02-11T04:51:49.289Z,31.6
2023-02-11T04:53:53.422Z,25.3
2023-02-11T04:55:57.217Z,21
2023-02-11T04:58:01.036Z,32.5
2023-02-11T05:00:24.718Z,33.8
2023-02-11T05:02:28.519Z,32.2
2023-02-11T05:04:32.397Z,29
2023-02-11T05:06:38.937Z,29.1
2023-02-11T05:08:42.721Z,42.2
2023-02-11T05:10:46.529Z,34.4
2023-02-11T05:12:50.339Z,35
2023-02-11T05:14:54.117Z,27.8
2023-02-11T05:16:58.534Z,26.7
2023-02-11T05:19:02.291Z,28.5
2023-02-11T05:21:08.897Z,31.6
2023-02-11T05:23:12.717Z,33.3
2023-02-11T05:27:20.310Z,27.4
2023-02-11T05:33:31.748Z,32.5
2023-02-11T05:37:42.169Z,44.6
2023-02-11T05:48:01.207Z,50
2023-02-11T05:50:07.802Z,31.7
2023-02-11T05:52:11.625Z,42.5
2023-02-11T05:55:18.745Z,41.4
2023-02-11T05:57:22.542Z,37.7
2023-02-11T06:01:30.148Z,39.7
2023-02-11T06:05:40.603Z,56.9
2023-02-11T06:07:44.396Z,36.7
2023-02-11T06:11:51.997Z,48.9
2023-02-11T06:15:59.718Z,53.8
2023-02-11T06:18:06.262Z,53.5
2023-02-11T06:20:10.068Z,45.6
2023-02-11T06:30:29.125Z,51.7
2023-02-11T06:32:43.944Z,51.3
2023-02-11T06:34:39.549Z,64
2023-02-11T06:38:47.193Z,42.6
2023-02-11T06:40:50.976Z,43.2
2023-02-11T06:42:54.765Z,46.1
2023-02-11T06:49:10.482Z,38.9
2023-02-11T06:52:19.054Z,40.3
2023-02-11T06:54:22.852Z,46.4
2023-02-11T06:56:26.662Z,46.5
2023-02-11T07:02:40.937Z,44.9
2023-02-11T07:04:44.712Z,67.6
2023-02-11T07:08:52.330Z,55.3
2023-02-11T07:10:56.140Z,44.6
2023-02-11T07:12:59.977Z,51.3
2023-02-11T07:15:06.582Z,51.3
2023-02-11T07:17:10.382Z,49.6
2023-02-11T07:19:14.214Z,55.4
2023-02-11T07:21:17.991Z,40.8
2023-02-11T07:23:21.818Z,38.8
2023-02-11T07:25:25.634Z,54.2
2023-02-11T07:27:29.441Z,48.2
2023-02-11T07:29:36.074Z,42.3
2023-02-11T07:31:40.140Z,48.1
2023-02-11T07:33:43.666Z,49.4
2023-02-11T07:35:47.482Z,54.7
2023-02-11T07:37:51.285Z,60.4
2023-02-11T07:39:55.102Z,46.1
2023-02-11T07:41:58.934Z,57.1
2023-02-11T07:44:05.558Z,60.6
2023-02-11T07:48:13.168Z,47.5
2023-02-11T07:51:20.298Z,50.4
2023-02-11T07:53:24.089Z,48.6
2023-02-11T07:55:27.910Z,40.9
2023-02-11T07:57:34.542Z,56.3
2023-02-11T07:59:38.333Z,52.6
2023-02-11T08:01:42.159Z,60.5
2023-02-11T08:03:45.961Z,64
2023-02-11T08:05:50.091Z,47.1
2023-02-11T08:07:53.713Z,47.2
2023-02-11T08:09:57.411Z,52.8
2023-02-11T08:16:11.717Z,45.8
2023-02-11T08:20:19.304Z,48.4
2023-02-11T08:22:23.128Z,47.4
2023-02-11T08:24:26.925Z,61.7
2023-02-11T08:30:41.249Z,55.2
2023-02-11T08:32:45.008Z,43.8
2023-02-11T08:34:48.835Z,53.1
2023-02-11T08:36:53.383Z,57.1
2023-02-11T08:39:08.569Z,42
2023-02-11T08:41:03.828Z,50
2023-02-11T08:43:08.204Z,52.6
2023-02-11T08:45:11.443Z,55
2023-02-11T08:47:41.044Z,53.7
2023-02-11T08:55:59.140Z,49.3
2023-02-11T09:02:10.633Z,56.3
2023-02-11T09:04:14.449Z,47.7
2023-02-11T09:08:24.910Z,54.4
2023-02-11T09:10:28.760Z,46.3
2023-02-11T09:12:32.576Z,62.2
2023-02-11T09:14:36.408Z,47.1
2023-02-11T09:16:40.305Z,41
2023-02-11T09:18:44.045Z,56.7
2023-02-11T09:20:47.909Z,46.2
2023-02-11T09:22:54.565Z,43.3
2023-02-11T09:31:10.108Z,55.2
2023-02-11T09:33:13.727Z,44.8
2023-02-11T09:35:17.575Z,53.7
2023-02-11T09:37:24.234Z,50.4
2023-02-11T09:41:31.928Z,51.6
2023-02-11T09:42:35.236Z,37.9
2023-02-11T09:44:39.109Z,51.1
2023-02-11T09:46:42.940Z,34.8
2023-02-11T09:48:46.928Z,39.1
2023-02-11T09:52:57.319Z,39.2
2023-02-11T09:57:05.029Z,40.9
2023-02-11T09:59:08.867Z,45.2
2023-02-11T10:01:12.769Z,49.3
2023-02-11T10:03:16.601Z,40.8
2023-02-11T10:07:27.114Z,31.4
2023-02-11T10:09:31.103Z,35.8
2023-02-11T10:13:41.470Z,32.6
2023-02-11T10:17:46.521Z,40.1
2023-02-11T10:19:53.121Z,34.6
2023-02-11T10:21:57.060Z,34.5
2023-02-11T10:24:00.945Z,38.3
2023-02-11T10:26:04.836Z,34.4
2023-02-11T10:28:08.707Z,25
2023-02-11T10:30:12.573Z,34.5
2023-02-11T10:32:16.451Z,36.6
2023-02-11T10:34:23.724Z,20.7
2023-02-11T10:36:27.588Z,28.7
2023-02-11T10:38:31.476Z,26.4
2023-02-11T10:45:46.455Z,28.2
2023-02-11T10:47:53.135Z,33.3
2023-02-11T10:49:57.029Z,32.2
2023-02-11T10:52:00.910Z,25.5
2023-02-11T10:56:08.648Z,35.1
2023-02-11T10:58:12.525Z,22.8
2023-02-11T11:00:16.410Z,24.8
2023-02-11T11:02:23.094Z,30.5
2023-02-11T11:04:27.049Z,30.1
2023-02-11T11:06:30.854Z,29.8
2023-02-11T11:08:34.717Z,22.5
2023-02-11T11:10:38.611Z,22.5
2023-02-11T11:12:42.471Z,24
2023-02-11T11:14:46.370Z,15.9
2023-02-11T11:16:53.050Z,17.2
2023-02-11T11:18:56.936Z,20.8
2023-02-11T11:23:04.710Z,18.2
2023-02-11T11:25:08.579Z,18.4
2023-02-11T11:27:12.434Z,19.1
2023-02-11T11:29:16.336Z,15.2
2023-02-11T11:31:23.164Z,20.5
2023-02-11T11:33:26.881Z,20.2
2023-02-11T11:42:45.751Z,18.5
2023-02-11T11:46:56.321Z,25.3
2023-02-11T11:49:00.156Z,24.9
2023-02-11T11:51:04.024Z,16.1
2023-02-11T11:53:07.905Z,13.4
2023-02-11T11:55:11.776Z,26.8
2023-02-11T11:57:15.701Z,20.6
2023-02-11T12:01:26.246Z,23.6
2023-02-11T12:03:30.175Z,16.1
2023-02-11T12:05:33.994Z,19
2023-02-11T12:07:37.875Z,21.6
2023-02-11T12:09:41.761Z,21.6
2023-02-11T12:11:45.657Z,15.5
2023-02-11T12:13:52.340Z,24.3
2023-02-11T12:15:56.235Z,18.9
2023-02-11T12:18:00.120Z,24.9
2023-02-11T12:20:04.007Z,16.5
2023-02-11T12:26:15.636Z,15.8
2023-02-11T12:30:26.217Z,20.4
2023-02-11T12:32:30.121Z,13.6
2023-02-11T12:39:07.463Z,17.5
2023-02-11T12:41:14.160Z,16.1
2023-02-11T12:43:18.036Z,16.8
2023-02-11T12:45:21.949Z,17.5
2023-02-11T12:47:27.293Z,14.2
2023-02-11T12:49:31.128Z,15
2023-02-11T12:51:35.028Z,14
2023-02-11T12:53:38.910Z,22.9
2023-02-11T12:55:45.629Z,22.4
2023-02-11T12:57:49.545Z,17
2023-02-11T13:01:57.363Z,23.2
2023-02-11T13:06:05.093Z,17.6
2023-02-11T13:08:09.000Z,15.9
2023-02-11T13:10:15.699Z,19.5
2023-02-11T13:12:19.611Z,15
2023-02-11T13:16:27.442Z,17.5
2023-02-11T13:18:31.281Z,14.7
2023-02-11T13:20:35.183Z,12
2023-02-11T13:22:39.059Z,9.2
2023-02-11T13:24:45.811Z,9.2
2023-02-11T13:26:49.695Z,9.2
2023-02-11T13:28:53.566Z,13.5
2023-02-11T13:29:56.934Z,12.6
2023-02-11T13:36:08.641Z,10.1
2023-02-11T13:38:15.330Z,13.3
2023-02-11T13:40:19.222Z,11.2
2023-02-11T13:44:27.015Z,10.5
2023-02-11T13:46:30.925Z,8
2023-02-11T13:48:34.923Z,8.4
2023-02-11T13:50:38.724Z,11.1
2023-02-11T13:52:45.415Z,11.7
2023-02-11T13:54:49.310Z,12.6
2023-02-11T13:56:53.233Z,14.9
2023-02-11T13:58:57.116Z,9.6
2023-02-11T14:01:01.111Z,9.1
2023-02-11T14:03:04.935Z,9.4
2023-02-11T14:05:08.808Z,9.8
2023-02-11T14:07:15.540Z,11.6
2023-02-11T14:09:19.419Z,6.3
2023-02-11T14:11:23.326Z,11.1
2023-02-11T14:13:27.239Z,11.8
2023-02-11T14:15:31.928Z,21.7
2023-02-11T14:17:35.928Z,7.8
2023-02-11T14:21:46.438Z,11.4
2023-02-11T14:23:50.321Z,11
2023-02-11T14:25:54.217Z,14
2023-02-11T14:31:05.460Z,12.7
2023-02-11T14:33:09.253Z,8.1
2023-02-11T14:35:15.949Z,11.1
2023-02-11T14:37:19.811Z,7.8
2023-02-11T14:41:27.618Z,14.9
2023-02-11T14:45:35.383Z,6.9
2023-02-11T14:47:39.251Z,6
2023-02-11T14:49:45.998Z,8.3
2023-02-11T14:51:49.836Z,6.9
2023-02-11T14:53:53.741Z,15.3
2023-02-11T14:55:57.803Z,18.3
2023-02-11T14:58:01.517Z,6.2
2023-02-11T15:00:05.583Z,7.8
2023-02-11T15:04:15.948Z,12.8
2023-02-11T15:06:19.798Z,9.5
2023-02-11T15:10:27.570Z,7.6
2023-02-11T15:12:31.422Z,16.5
2023-02-11T15:14:35.303Z,8.6
2023-02-11T15:16:39.142Z,5.7
2023-02-11T15:18:45.828Z,7.4
2023-02-11T15:20:50.216Z,6.5
2023-02-11T15:22:53.577Z,5.4
2023-02-11T15:23:56.901Z,9.2
2023-02-11T15:30:08.540Z,9.4
2023-02-11T15:32:15.405Z,12.3
2023-02-11T15:44:38.363Z,4.6
2023-02-11T15:46:45.059Z,16.3
2023-02-11T15:48:48.889Z,5.5
2023-02-11T15:50:53.223Z,4.1
2023-02-11T15:52:56.618Z,6.8
2023-02-11T16:03:18.714Z,8.3
2023-02-11T16:05:22.588Z,17.2
2023-02-11T16:09:30.336Z,10.9
2023-02-11T16:13:38.053Z,4.5
2023-02-11T16:17:48.563Z,6.7
2023-02-11T16:19:52.442Z,13.8
2023-02-11T16:26:27.827Z,15.8
2023-02-11T16:28:34.567Z,15
2023-02-11T16:30:38.380Z,23.4
2023-02-11T16:32:42.195Z,14.4
2023-02-11T16:34:46.077Z,12.7
2023-02-11T16:36:49.942Z,21.8
2023-02-11T16:38:53.799Z,15.5
2023-02-11T16:40:57.676Z,20.2
2023-02-11T16:43:04.344Z,17.7
2023-02-11T16:45:09.026Z,10.9
2023-02-11T16:49:16.546Z,16.3
2023-02-11T16:51:20.441Z,23.7
2023-02-11T16:53:24.282Z,12.6
2023-02-11T16:55:28.168Z,16.9
2023-02-11T16:57:34.828Z,21.8
2023-02-11T17:01:42.561Z,13.4
2023-02-11T17:03:46.407Z,13.4
2023-02-11T17:05:55.750Z,12.1
2023-02-11T17:07:54.127Z,11.4
2023-02-11T17:09:57.969Z,8
2023-02-11T17:14:08.520Z,9.5
2023-02-11T17:16:12.549Z,12.1
2023-02-11T17:17:15.736Z,19.3
2023-02-11T17:19:19.605Z,11.4
2023-02-11T17:21:23.450Z,18.5
2023-02-11T17:25:33.994Z,18.1
2023-02-11T17:27:37.897Z,19.2
2023-02-11T17:29:41.817Z,12.1
2023-02-11T17:31:45.646Z,11.2
2023-02-11T17:33:49.473Z,14.9
2023-02-11T17:35:53.770Z,10.6
2023-02-11T17:37:57.198Z,10.2
2023-02-11T17:40:03.903Z,13.6
2023-02-11T17:44:11.593Z,11.9
2023-02-11T17:46:15.553Z,16.2
2023-02-11T17:48:19.355Z,16.8
2023-02-11T17:50:23.201Z,21.9
2023-02-11T17:52:27.084Z,21
2023-02-11T17:56:37.648Z,18.7
2023-02-11T17:58:41.514Z,17.6
2023-02-11T18:00:45.386Z,23.4
2023-02-11T18:02:49.250Z,11
2023-02-11T18:06:56.974Z,15.2
2023-02-11T18:09:03.656Z,16.2
2023-02-11T18:11:07.513Z,24.9
2023-02-11T18:13:11.377Z,17.8
2023-02-11T18:16:18.651Z,14.3
2023-02-11T18:18:22.448Z,18.4
2023-02-11T18:20:26.282Z,20.8
2023-02-11T18:22:32.969Z,12.9
2023-02-11T18:24:36.804Z,19.4
2023-02-11T18:26:40.690Z,21.1
2023-02-11T18:30:48.460Z,17.6
2023-02-11T18:39:06.872Z,16.5
2023-02-11T18:41:10.709Z,16.5
2023-02-11T18:43:14.564Z,29.3
2023-02-11T18:45:19.906Z,22.3
2023-02-11T18:47:23.705Z,19.1
2023-02-11T18:53:38.109Z,14.3
2023-02-11T18:57:45.791Z,20.8
2023-02-11T18:59:49.640Z,20.4
2023-02-11T19:01:53.516Z,16.7
2023-02-11T19:03:57.474Z,14.5
2023-02-11T19:06:04.009Z,17.8
2023-02-11T19:08:07.875Z,22
2023-02-11T19:10:11.701Z,17.2
2023-02-11T19:11:15.031Z,21.3
2023-02-11T19:13:18.890Z,22
2023-02-11T19:19:33.220Z,16.3
2023-02-11T19:21:37.096Z,17.6
2023-02-11T19:23:40.913Z,21.7
2023-02-11T19:25:44.756Z,20.7
2023-02-11T19:27:48.613Z,25.1
2023-02-11T19:29:52.469Z,16.2
2023-02-11T19:31:56.402Z,16.6
2023-02-11T19:34:02.994Z,17.4
2023-02-11T19:36:06.858Z,25.2
2023-02-11T19:38:10.634Z,28.5
2023-02-11T19:40:14.472Z,24.8
2023-02-11T19:42:18.337Z,26
2023-02-11T19:44:22.140Z,18.3
2023-02-11T19:46:26.061Z,19.4
2023-02-11T19:48:32.662Z,24.5
2023-02-11T19:50:36.489Z,14.5
2023-02-11T19:52:40.333Z,13.4
2023-02-11T19:54:44.165Z,20.2
2023-02-11T19:56:48.022Z,22.5
2023-02-11T19:58:51.857Z,27.7
2023-02-11T20:00:55.700Z,18
2023-02-11T20:05:06.206Z,16.6
2023-02-11T20:07:10.050Z,21.5
2023-02-11T20:09:39.561Z,16.9
2023-02-11T20:13:47.275Z,19.6
2023-02-11T20:17:57.742Z,23.9
2023-02-11T20:20:01.613Z,16.8
2023-02-11T20:22:05.457Z,22.7
2023-02-11T20:24:09.310Z,22.1
2023-02-11T20:28:17.058Z,23.1
2023-02-11T20:30:23.646Z,25.1
2023-02-11T20:32:27.478Z,37.1
2023-02-11T20:34:31.314Z,23.4
2023-02-11T20:36:35.149Z,30
2023-02-11T20:38:39.003Z,22.8
2023-02-11T20:40:42.853Z,20.9
2023-02-11T20:42:46.707Z,19.9
2023-02-11T20:46:57.168Z,17.6
2023-02-11T20:49:01.001Z,19.6
2023-02-11T20:51:04.858Z,29.2
2023-02-11T20:53:08.693Z,18.2
2023-02-11T20:55:12.524Z,22.6
2023-02-11T20:57:16.342Z,22.4
2023-02-11T21:01:26.905Z,21.5
2023-02-11T21:03:30.719Z,22.6
2023-02-11T21:10:45.533Z,25.6
2023-02-11T21:14:55.999Z,19
2023-02-11T21:16:59.872Z,27
2023-02-11T21:19:03.691Z,25.3
2023-02-11T21:21:07.547Z,30.2
2023-02-11T21:23:11.354Z,29.6
2023-02-11T21:25:15.273Z,36.1
2023-02-11T21:35:37.331Z,25
2023-02-11T21:43:55.440Z,21.8
2023-02-11T21:45:59.253Z,23.3
2023-02-11T21:48:03.084Z,21.3
2023-02-11T21:50:06.909Z,23.7
2023-02-11T21:52:10.766Z,17.9
2023-02-11T21:54:14.592Z,25.9
2023-02-11T21:56:21.242Z,33.2
2023-02-11T21:58:25.078Z,22.4
2023-02-11T22:00:28.989Z,22.5
2023-02-11T22:03:36.068Z,26.9
2023-02-11T22:18:05.751Z,17.6
2023-02-11T22:24:20.049Z,27.2
2023-02-11T22:26:23.900Z,26.8
2023-02-11T22:28:27.830Z,22.3
2023-02-11T22:30:31.568Z,21
2023-02-11T22:32:35.379Z,20.1
2023-02-11T22:34:39.215Z,22.3
2023-02-11T22:36:43.053Z,23.1
2023-02-11T22:38:49.733Z,22.8
2023-02-11T22:40:53.533Z,25.3
2023-02-11T22:42:57.376Z,22
2023-02-11T22:49:08.864Z,29.9
2023-02-11T22:51:12.715Z,34.3
2023-02-11T22:57:27.031Z,22
2023-02-11T22:58:30.356Z,20.2
2023-02-11T23:02:38.182Z,19.8
2023-02-11T23:04:41.861Z,23
2023-02-11T23:06:48.503Z,24.8
2023-02-11T23:08:52.408Z,26.7
2023-02-11T23:10:56.184Z,20.3
2023-02-11T23:15:05.023Z,28.3
2023-02-11T23:17:07.690Z,28.4
2023-02-11T23:19:11.520Z,28.3
2023-02-11T23:21:18.208Z,20
2023-02-11T23:23:21.978Z,21
2023-02-11T23:25:25.846Z,17
2023-02-11T23:27:29.696Z,24
2023-02-11T23:29:33.480Z,22.4
2023-02-11T23:31:37.451Z,20.5
2023-02-11T23:33:41.133Z,22.9
2023-02-11T23:35:47.773Z,25
2023-02-11T23:37:51.601Z,20.8
2023-02-11T23:39:55.407Z,26.6
2023-02-11T23:41:59.246Z,30.5
2023-02-11T23:44:03.039Z,19.9
2023-02-11T23:46:06.997Z,24.7
2023-02-11T23:48:10.673Z,18
2023-02-11T23:50:17.322Z,27.8
2023-02-11T23:52:21.116Z,21.2
2023-02-11T23:54:24.940Z,43.7
2023-02-11T23:56:54.518Z,28.3
2023-02-11T23:58:58.352Z,26.1
